Cambridgeport, VT (05141)

4:34 AM EDT on October 26, 2014 (GMT -0400)
Goldthwaite Road | Change Station
CLOSE
Current Station
Personal Weather Station
Location: Chester, VT
Elevation: 1227 ft
Nearby Weather Stations

Elev 1227 ft 43.27 °N, 72.65 °W | Updated 4 minutes ago

Mostly Cloudy
Mostly Cloudy
47.1 °F
Feels Like 47 °F
N
0.0
Wind Variable Wind from SE
Gusts 0.0 mph

Today
High -- | Low -- °F
--% Chance of Precip.
Yesterday
High -- | Low -- °F
Precip. -- in
7:17 AM 5:50 PM
Waxing Crescent, 6% visible
Pressure 29.44 in
Visibility 0.5 miles
Clouds Scattered Clouds 200 ft
Mostly Cloudy 4700 ft
Windchill 47 °F
Dew Point 41 °F
Humidity 80%
Rainfall 0.00 in
Snow Depth Not available.
UV 0 out of 12
Pollen .40 out of 12
Ozone Good
PM2.5 Moderate
Flu Activity Sporadic
SPECI KVSF 260814Z AUTO 00000KT 1/2SM FG SCT002 BKN047 04/04 A2944 RMK AO2 T00440044

More Conditions Fewer Conditions

Pressure 29.44 in
Visibility 0.5 miles
Clouds Scattered Clouds 200 ft
Mostly Cloudy 4700 ft
Windchill 47 °F
Dew Point 41 °F
Humidity 80%
Rainfall 0.00 in
Snow Depth Not available.
UV 0 out of 12
Pollen .40 out of 12
Ozone Good
PM2.5 Moderate
Flu Activity Sporadic
SPECI KVSF 260814Z AUTO 00000KT 1/2SM FG SCT002 BKN047 04/04 A2944 RMK AO2 T00440044

More Conditions Fewer Conditions

10-Day Weather Forecast

Almanac

Astronomy

Oct. 26, 2014 Rise Set
Actual Time 7:17 AM EDT 5:50 PM EDT
Civil Twilight 6:48 AM EDT 6:19 PM EDT
Nautical Twilight 6:14 AM EDT 6:52 PM EDT
Astronomical Twilight 5:41 AM EDT 7:25 PM EDT
Moon 9:55 AM EDT 7:56 PM EDT
Length of Visible Light 11h 31m
Length of Day
10h 32m
Tomorrow will be 2m 42s shorter.
Waxing Crescent, 6% of the Moon is Illuminated
Today
Waxing Crescent
Oct 30
First Quarter
Nov 6
Full
Nov 14
Last Quarter
Nov 22
New

Today's Extremes

State Highs State Lows

Community

WunderPhotos

Upload Photos

1,765,127 photos uploaded!

Nearby

Air Quality

  Air Quality AQ Index Pollutant
Yesterday Good
OZONE
Yesterday Good
PM2.5
Current Moderate
PM2.5
Current Good
OZONE
Sunday Good
PM2.5
Monday Good
PM2.5

Snow Depth

Station Depth Elevation
No new snow has been reported.

Earthquake Activity

City Distance Mag. Time & Date
No recent earthquake activity has been reported nearby.
Minimum magnitude displayed is 2.5.

Coastal Water Temperatures

Place Temperature
No Stations Reporting

Nearby Weather Stations